Time;durP1;ratioP1;P1;durP2;ratioP2;P2;SDS_P1;SDS_P2;PMS_P1;PMS_P2;Temp;Humidity;BMP_temperature;BMP_pressure;BME280_temperature;BME280_humidity;BME280_pressure;Samples;Min_cycle;Max_cycle;Signal;HPM_P1;HPM_P2
2024/01/27 00:02:01;;;;;;;0.20;0.20;;;;;;;;;;4978397;28;20042;-85
2024/01/27 00:04:27;;;;;;;0.85;0.55;;;;;;;;;;5010695;28;20042;-85
2024/01/27 00:06:53;;;;;;;0.10;0.10;;;;;;;;;;4978300;28;20489;-84
2024/01/27 00:09:19;;;;;;;0.10;0.10;;;;;;;;;;4978290;28;20128;-84
2024/01/27 00:11:45;;;;;;;0.63;0.60;;;;;;;;;;4978385;28;20053;-84
2024/01/27 00:14:11;;;;;;;0.10;0.10;;;;;;;;;;5011005;28;20045;-85
2024/01/27 00:16:37;;;;;;;0.10;0.10;;;;;;;;;;4978131;28;20038;-85
2024/01/27 00:19:03;;;;;;;0.10;0.10;;;;;;;;;;5010505;28;20473;-84
2024/01/27 00:21:29;;;;;;;0.10;0.10;;;;;;;;;;4997263;28;20041;-84
2024/01/27 00:24:00;;;;;;;0.10;0.10;;;;;;;;;;5014271;28;20050;-85
2024/01/27 00:26:27;;;;;;;0.10;0.10;;;;;;;;;;4982585;28;20437;-85
2024/01/27 00:28:53;;;;;;;0.10;0.10;;;;;;;;;;4981682;28;20052;-85
2024/01/27 00:31:19;;;;;;;0.10;0.10;;;;;;;;;;4981582;28;20206;-84
2024/01/27 00:33:45;;;;;;;0.10;0.10;;;;;;;;;;4981409;28;20125;-84
2024/01/27 00:36:12;;;;;;;0.10;0.10;;;;;;;;;;4981348;28;20121;-85
2024/01/27 00:38:38;;;;;;;0.10;0.10;;;;;;;;;;4981810;28;20124;-85
2024/01/27 00:41:05;;;;;;;0.10;0.10;;;;;;;;;;4981307;28;20128;-85
2024/01/27 00:43:31;;;;;;;0.10;0.10;;;;;;;;;;4981386;28;20516;-85
2024/01/27 00:45:57;;;;;;;0.10;0.10;;;;;;;;;;4997462;28;20081;-85
2024/01/27 00:48:23;;;;;;;0.10;0.10;;;;;;;;;;4981248;28;20058;-85
2024/01/27 00:50:49;;;;;;;0.10;0.10;;;;;;;;;;4981010;28;20057;-84
2024/01/27 00:53:15;;;;;;;0.10;0.10;;;;;;;;;;4981256;28;20038;-85
2024/01/27 00:55:42;;;;;;;0.10;0.10;;;;;;;;;;4981220;28;20049;-85
2024/01/27 00:58:08;;;;;;;0.10;0.10;;;;;;;;;;4981322;28;20042;-85
2024/01/27 01:00:34;;;;;;;0.10;0.10;;;;;;;;;;4980825;28;20033;-84
2024/01/27 01:03:00;;;;;;;0.10;0.10;;;;;;;;;;4980959;28;20045;-85
2024/01/27 01:05:26;;;;;;;0.10;0.10;;;;;;;;;;4997099;28;20081;-84
2024/01/27 01:07:55;;;;;;;0.10;0.10;;;;;;;;;;5013486;28;20040;-85
2024/01/27 01:10:21;;;;;;;0.10;0.10;;;;;;;;;;4980753;28;20046;-84
2024/01/27 01:12:47;;;;;;;0.10;0.10;;;;;;;;;;4980739;28;20052;-85
2024/01/27 01:15:14;;;;;;;0.10;0.10;;;;;;;;;;5013070;28;20551;-85
2024/01/27 01:17:40;;;;;;;0.10;0.10;;;;;;;;;;4996848;28;20049;-85
2024/01/27 01:20:06;;;;;;;0.10;0.10;;;;;;;;;;4980751;28;20034;-85
2024/01/27 01:22:32;;;;;;;0.10;0.10;;;;;;;;;;5012930;28;20061;-85
2024/01/27 01:24:58;;;;;;;0.10;0.10;;;;;;;;;;4997078;28;20343;-85
2024/01/27 01:27:24;;;;;;;0.10;0.10;;;;;;;;;;4980976;28;20042;-84
2024/01/27 01:29:50;;;;;;;0.10;0.10;;;;;;;;;;4980716;28;20201;-85
2024/01/27 01:32:16;;;;;;;0.10;0.10;;;;;;;;;;4979517;28;20049;-85
2024/01/27 01:34:42;;;;;;;0.10;0.10;;;;;;;;;;4980306;28;20042;-85
2024/01/27 01:37:09;;;;;;;0.10;0.10;;;;;;;;;;4980656;28;20125;-85
2024/01/27 01:39:35;;;;;;;0.10;0.10;;;;;;;;;;4980752;28;20038;-85
2024/01/27 01:42:01;;;;;;;0.10;0.10;;;;;;;;;;4980585;28;20049;-85
2024/01/27 01:44:29;;;;;;;0.10;0.10;;;;;;;;;;5012703;28;20490;-86
2024/01/27 01:46:56;;;;;;;0.10;0.10;;;;;;;;;;4996945;28;20417;-85
2024/01/27 01:49:22;;;;;;;0.10;0.10;;;;;;;;;;4996387;28;20093;-85
2024/01/27 01:51:48;;;;;;;0.10;0.10;;;;;;;;;;4980110;28;20133;-86
2024/01/27 01:54:14;;;;;;;0.10;0.10;;;;;;;;;;5012777;28;20478;-85
2024/01/27 01:56:40;;;;;;;0.10;0.10;;;;;;;;;;4996362;28;20038;-85
2024/01/27 01:59:07;;;;;;;0.10;0.10;;;;;;;;;;4996352;28;20394;-85
2024/01/27 02:01:33;;;;;;;0.10;0.10;;;;;;;;;;4979709;28;20179;-85
2024/01/27 02:03:59;;;;;;;0.10;0.10;;;;;;;;;;4980005;28;20076;-85
2024/01/27 02:06:25;;;;;;;0.10;0.10;;;;;;;;;;4995937;28;20053;-85
2024/01/27 02:08:51;;;;;;;0.10;0.10;;;;;;;;;;4995994;28;20401;-84
2024/01/27 02:11:17;;;;;;;0.10;0.10;;;;;;;;;;4979352;28;20049;-85
2024/01/27 02:13:43;;;;;;;0.10;0.10;;;;;;;;;;4979787;28;20121;-85
2024/01/27 02:16:09;;;;;;;0.10;0.10;;;;;;;;;;4979477;28;20477;-85
2024/01/27 02:18:35;;;;;;;0.10;0.10;;;;;;;;;;4995931;28;20050;-84
2024/01/27 02:21:01;;;;;;;0.10;0.10;;;;;;;;;;4979385;28;20053;-85
2024/01/27 02:23:28;;;;;;;0.10;0.10;;;;;;;;;;4979974;28;20041;-84
2024/01/27 02:25:54;;;;;;;0.10;0.10;;;;;;;;;;4979345;28;20054;-85
2024/01/27 02:28:20;;;;;;;0.10;0.10;;;;;;;;;;4995556;28;20066;-84
2024/01/27 02:30:46;;;;;;;0.10;0.10;;;;;;;;;;4979273;28;20045;-85
2024/01/27 02:33:12;;;;;;;0.10;0.10;;;;;;;;;;4979269;28;20037;-84
2024/01/27 02:35:38;;;;;;;0.10;0.10;;;;;;;;;;4979284;28;20038;-84
2024/01/27 02:38:04;;;;;;;0.10;0.10;;;;;;;;;;5011944;28;20107;-84
2024/01/27 02:40:30;;;;;;;0.10;0.10;;;;;;;;;;4979091;28;20414;-84
2024/01/27 02:42:56;;;;;;;0.10;0.10;;;;;;;;;;4979000;28;20044;-85
2024/01/27 02:45:22;;;;;;;0.10;0.10;;;;;;;;;;5011260;28;20042;-84
2024/01/27 02:47:48;;;;;;;0.10;0.10;;;;;;;;;;4995243;28;20034;-85
2024/01/27 02:50:15;;;;;;;0.10;0.10;;;;;;;;;;4978828;28;20498;-85
2024/01/27 02:52:41;;;;;;;0.10;0.10;;;;;;;;;;4978912;28;20104;-84
2024/01/27 02:55:07;;;;;;;0.10;0.10;;;;;;;;;;4978809;28;20034;-85
2024/01/27 02:57:33;;;;;;;0.30;0.20;;;;;;;;;;4978934;28;20040;-85
2024/01/27 02:59:59;;;;;;;0.20;0.20;;;;;;;;;;4979131;28;20477;-85
2024/01/27 03:02:25;;;;;;;0.10;0.10;;;;;;;;;;4994971;28;20101;-85
2024/01/27 03:04:51;;;;;;;0.10;0.10;;;;;;;;;;5011523;28;20041;-85
2024/01/27 03:07:17;;;;;;;0.10;0.10;;;;;;;;;;4978790;28;20042;-84
2024/01/27 03:09:43;;;;;;;0.10;0.10;;;;;;;;;;4994928;28;20095;-85
2024/01/27 03:12:09;;;;;;;0.10;0.10;;;;;;;;;;5011202;28;20133;-86
2024/01/27 03:14:36;;;;;;;0.10;0.10;;;;;;;;;;4995017;28;20073;-85
2024/01/27 03:17:02;;;;;;;0.10;0.10;;;;;;;;;;4979335;28;20524;-85
2024/01/27 03:19:28;;;;;;;0.10;0.10;;;;;;;;;;4978922;28;20081;-85
2024/01/27 03:21:54;;;;;;;0.10;0.10;;;;;;;;;;4978705;28;20084;-85
2024/01/27 03:24:20;;;;;;;0.10;0.10;;;;;;;;;;4978812;28;20041;-85
2024/01/27 03:26:46;;;;;;;0.10;0.10;;;;;;;;;;5011609;28;20057;-85
2024/01/27 03:29:12;;;;;;;0.10;0.10;;;;;;;;;;5011175;28;20124;-85
2024/01/27 03:31:39;;;;;;;0.10;0.10;;;;;;;;;;4978488;28;20038;-85
2024/01/27 03:34:05;;;;;;;0.10;0.10;;;;;;;;;;4978766;28;20038;-84
2024/01/27 03:36:31;;;;;;;0.10;0.10;;;;;;;;;;4978740;28;20077;-85
2024/01/27 03:38:58;;;;;;;0.10;0.10;;;;;;;;;;4978392;28;20040;-85
2024/01/27 03:41:24;;;;;;;0.10;0.10;;;;;;;;;;4994999;28;20237;-85
2024/01/27 03:43:50;;;;;;;0.10;0.10;;;;;;;;;;4978423;28;20061;-85
2024/01/27 03:46:16;;;;;;;0.10;0.10;;;;;;;;;;4978582;28;20092;-84
2024/01/27 03:48:42;;;;;;;0.10;0.10;;;;;;;;;;4978265;28;20158;-85
2024/01/27 03:51:09;;;;;;;0.10;0.10;;;;;;;;;;4978259;28;20078;-86
2024/01/27 03:53:35;;;;;;;0.10;0.10;;;;;;;;;;4978771;28;20072;-84
2024/01/27 03:56:04;;;;;;;0.10;0.10;;;;;;;;;;4997050;28;20312;-85
2024/01/27 03:58:30;;;;;;;0.10;0.10;;;;;;;;;;4982548;28;20074;-85
2024/01/27 04:00:57;;;;;;;0.15;0.15;;;;;;;;;;4982010;28;20084;-85
2024/01/27 04:03:23;;;;;;;0.10;0.10;;;;;;;;;;4981907;28;20080;-86
2024/01/27 04:05:49;;;;;;;0.10;0.10;;;;;;;;;;5014713;28;20432;-85
2024/01/27 04:08:15;;;;;;;0.10;0.10;;;;;;;;;;4998090;28;20060;-85
2024/01/27 04:10:41;;;;;;;0.10;0.10;;;;;;;;;;4981695;28;20131;-85
2024/01/27 04:13:08;;;;;;;0.10;0.10;;;;;;;;;;4997905;28;20049;-85
2024/01/27 04:15:38;;;;;;;0.10;0.10;;;;;;;;;;4981910;28;20041;-85
2024/01/27 04:18:08;;;;;;;0.10;0.10;;;;;;;;;;4982414;28;20034;-86
2024/01/27 04:20:34;;;;;;;0.10;0.10;;;;;;;;;;4982065;28;20073;-85
2024/01/27 04:23:00;;;;;;;0.10;0.10;;;;;;;;;;4981684;28;20038;-86
2024/01/27 04:25:26;;;;;;;0.10;0.10;;;;;;;;;;4981753;28;20048;-85
2024/01/27 04:27:53;;;;;;;0.10;0.10;;;;;;;;;;4981616;28;20120;-84
2024/01/27 04:30:19;;;;;;;0.10;0.10;;;;;;;;;;4981467;28;20046;-87
2024/01/27 04:32:45;;;;;;;0.10;0.10;;;;;;;;;;5013896;28;20050;-86
2024/01/27 04:35:11;;;;;;;0.10;0.10;;;;;;;;;;4981541;28;20034;-86
2024/01/27 04:37:38;;;;;;;0.10;0.10;;;;;;;;;;4981822;28;20042;-87
2024/01/27 04:40:07;;;;;;;0.10;0.10;;;;;;;;;;4982000;28;20385;-85
2024/01/27 04:42:38;;;;;;;0.30;0.30;;;;;;;;;;4997645;28;20120;-85
2024/01/27 04:45:04;;;;;;;0.10;0.10;;;;;;;;;;4981754;28;20456;-84
2024/01/27 04:47:30;;;;;;;0.10;0.10;;;;;;;;;;4981252;28;20046;-85
2024/01/27 04:49:59;;;;;;;0.10;0.10;;;;;;;;;;4997196;28;20053;-84
2024/01/27 04:52:25;;;;;;;0.10;0.10;;;;;;;;;;4981473;28;20042;-85
2024/01/27 04:54:52;;;;;;;0.10;0.10;;;;;;;;;;4981116;28;20046;-84
2024/01/27 04:57:18;;;;;;;0.10;0.10;;;;;;;;;;4980981;28;20045;-84
2024/01/27 04:59:44;;;;;;;0.10;0.10;;;;;;;;;;4981234;28;20397;-85
2024/01/27 05:02:10;;;;;;;0.10;0.10;;;;;;;;;;4997271;28;20393;-84
2024/01/27 05:04:37;;;;;;;0.10;0.10;;;;;;;;;;4981009;28;20050;-84
2024/01/27 05:07:03;;;;;;;0.10;0.10;;;;;;;;;;4979961;28;20088;-84
2024/01/27 05:09:29;;;;;;;0.10;0.10;;;;;;;;;;4980792;28;20275;-85
2024/01/27 05:11:56;;;;;;;0.10;0.10;;;;;;;;;;5013077;28;20050;-86
2024/01/27 05:14:22;;;;;;;0.10;0.10;;;;;;;;;;4997702;28;20413;-85
2024/01/27 05:16:48;;;;;;;0.20;0.20;;;;;;;;;;4980948;28;20049;-86
2024/01/27 05:19:16;;;;;;;0.10;0.10;;;;;;;;;;4980647;28;20034;-85
2024/01/27 05:21:42;;;;;;;0.10;0.10;;;;;;;;;;4981051;28;20042;-85
2024/01/27 05:24:08;;;;;;;0.10;0.10;;;;;;;;;;4997383;28;20049;-86
2024/01/27 05:26:35;;;;;;;0.10;0.10;;;;;;;;;;4980610;28;20038;-86
2024/01/27 05:29:01;;;;;;;0.10;0.10;;;;;;;;;;4996578;28;20233;-86
2024/01/27 05:31:27;;;;;;;0.10;0.10;;;;;;;;;;4996651;28;20144;-86
2024/01/27 05:33:53;;;;;;;0.10;0.10;;;;;;;;;;4996855;28;20072;-86
2024/01/27 05:36:19;;;;;;;0.10;0.10;;;;;;;;;;4996675;28;20060;-86
2024/01/27 05:38:45;;;;;;;0.10;0.10;;;;;;;;;;4996498;28;20049;-85
2024/01/27 05:41:11;;;;;;;0.10;0.10;;;;;;;;;;4980414;28;20049;-86
2024/01/27 05:43:37;;;;;;;0.25;0.25;;;;;;;;;;4980536;28;20038;-85
2024/01/27 05:46:03;;;;;;;0.10;0.10;;;;;;;;;;5012581;28;20132;-85
2024/01/27 05:48:29;;;;;;;0.10;0.10;;;;;;;;;;4979859;28;20060;-85
2024/01/27 05:50:56;;;;;;;0.10;0.10;;;;;;;;;;4996156;28;20057;-85
2024/01/27 05:53:22;;;;;;;0.10;0.10;;;;;;;;;;4980181;28;20042;-85
2024/01/27 05:55:48;;;;;;;0.20;0.20;;;;;;;;;;4980057;28;20042;-85
2024/01/27 05:58:15;;;;;;;0.10;0.10;;;;;;;;;;4996612;28;20080;-85
2024/01/27 06:00:44;;;;;;;0.10;0.10;;;;;;;;;;4980056;28;20042;-85
2024/01/27 06:03:10;;;;;;;0.10;0.10;;;;;;;;;;4980025;28;20045;-85
2024/01/27 06:05:37;;;;;;;0.10;0.10;;;;;;;;;;4979921;28;20121;-85
2024/01/27 06:08:03;;;;;;;0.10;0.10;;;;;;;;;;4995908;28;20045;-85
2024/01/27 06:10:30;;;;;;;0.10;0.10;;;;;;;;;;4979682;28;20046;-85
2024/01/27 06:12:56;;;;;;;0.10;0.10;;;;;;;;;;4979750;28;20048;-84
2024/01/27 06:15:22;;;;;;;0.10;0.10;;;;;;;;;;4979853;28;20049;-85
2024/01/27 06:17:48;;;;;;;0.10;0.10;;;;;;;;;;4979343;28;20038;-85
2024/01/27 06:20:17;;;;;;;0.10;0.10;;;;;;;;;;4979524;28;20124;-85
2024/01/27 06:22:43;;;;;;;0.10;0.10;;;;;;;;;;4979843;28;20048;-85
2024/01/27 06:25:10;;;;;;;0.10;0.10;;;;;;;;;;4979788;28;20131;-85
2024/01/27 06:27:37;;;;;;;0.10;0.10;;;;;;;;;;4979319;28;20607;-85
2024/01/27 06:30:04;;;;;;;0.10;0.10;;;;;;;;;;4979602;28;20397;-85
2024/01/27 06:32:30;;;;;;;0.10;0.10;;;;;;;;;;4979359;28;20042;-85
2024/01/27 06:34:56;;;;;;;0.10;0.10;;;;;;;;;;4979352;28;20073;-84
2024/01/27 06:37:22;;;;;;;0.10;0.10;;;;;;;;;;4995697;28;20060;-84
2024/01/27 06:39:48;;;;;;;0.10;0.10;;;;;;;;;;4979087;28;20034;-84
2024/01/27 06:42:14;;;;;;;0.10;0.10;;;;;;;;;;4979152;28;20049;-85
2024/01/27 06:44:40;;;;;;;0.10;0.10;;;;;;;;;;4995863;28;20053;-85
2024/01/27 06:47:06;;;;;;;0.10;0.10;;;;;;;;;;4978995;28;20053;-84
2024/01/27 06:49:33;;;;;;;0.10;0.10;;;;;;;;;;5011246;28;20058;-85
2024/01/27 06:52:00;;;;;;;0.10;0.10;;;;;;;;;;4979137;28;20567;-85
2024/01/27 06:54:26;;;;;;;0.10;0.10;;;;;;;;;;4979218;28;20034;-85
2024/01/27 06:56:52;;;;;;;0.10;0.10;;;;;;;;;;4995033;28;20045;-85
2024/01/27 06:59:18;;;;;;;0.10;0.10;;;;;;;;;;4978994;28;20501;-84
2024/01/27 07:01:48;;;;;;;0.10;0.10;;;;;;;;;;5011467;28;20042;-84
2024/01/27 07:04:15;;;;;;;0.10;0.10;;;;;;;;;;4995438;28;20037;-85
2024/01/27 07:06:41;;;;;;;0.10;0.10;;;;;;;;;;5011130;28;20057;-85
2024/01/27 07:09:10;;;;;;;0.10;0.10;;;;;;;;;;5011176;28;20048;-85
2024/01/27 07:11:37;;;;;;;0.10;0.10;;;;;;;;;;4978742;28;20041;-84
2024/01/27 07:14:03;;;;;;;0.10;0.10;;;;;;;;;;4979134;28;20038;-87
2024/01/27 07:16:29;;;;;;;0.10;0.10;;;;;;;;;;5011251;28;20486;-85
2024/01/27 07:18:55;;;;;;;0.10;0.10;;;;;;;;;;4979073;28;20096;-87
2024/01/27 07:21:22;;;;;;;0.10;0.10;;;;;;;;;;4995213;28;20046;-86
2024/01/27 07:23:48;;;;;;;0.10;0.10;;;;;;;;;;5011076;28;20048;-85
2024/01/27 07:26:14;;;;;;;0.10;0.10;;;;;;;;;;4978868;28;20049;-86
2024/01/27 07:28:40;;;;;;;0.10;0.10;;;;;;;;;;4979031;28;20045;-86
2024/01/27 07:31:09;;;;;;;0.10;0.10;;;;;;;;;;4997783;28;20038;-85
2024/01/27 07:33:35;;;;;;;0.10;0.10;;;;;;;;;;4983294;28;20045;-87
2024/01/27 07:36:01;;;;;;;0.10;0.10;;;;;;;;;;5014990;28;20038;-86
2024/01/27 07:38:27;;;;;;;0.10;0.10;;;;;;;;;;4983274;28;20413;-87
2024/01/27 07:40:53;;;;;;;0.10;0.10;;;;;;;;;;4999332;28;20045;-87
2024/01/27 07:43:20;;;;;;;0.10;0.10;;;;;;;;;;4982624;28;20038;-86
2024/01/27 07:45:46;;;;;;;0.10;0.10;;;;;;;;;;4982666;28;20048;-86
2024/01/27 07:48:12;;;;;;;0.10;0.10;;;;;;;;;;4982860;28;20034;-85
2024/01/27 07:50:39;;;;;;;0.10;0.10;;;;;;;;;;4982503;28;20075;-84
2024/01/27 07:53:05;;;;;;;0.10;0.10;;;;;;;;;;4998515;28;20054;-85
2024/01/27 07:55:31;;;;;;;0.10;0.10;;;;;;;;;;4982511;28;20041;-85
2024/01/27 07:57:58;;;;;;;0.10;0.10;;;;;;;;;;4998586;28;20572;-86
2024/01/27 08:00:24;;;;;;;0.10;0.10;;;;;;;;;;4981982;28;20489;-84
2024/01/27 08:02:50;;;;;;;0.10;0.10;;;;;;;;;;4998229;28;20053;-83
2024/01/27 08:05:16;;;;;;;0.10;0.10;;;;;;;;;;5014617;28;20050;-89
2024/01/27 08:07:42;;;;;;;0.10;0.10;;;;;;;;;;4982275;28;20382;-85
2024/01/27 08:10:11;;;;;;;0.30;0.20;;;;;;;;;;4997976;28;20077;-84
2024/01/27 08:12:38;;;;;;;0.10;0.10;;;;;;;;;;4983139;28;20095;-89
2024/01/27 08:15:04;;;;;;;0.10;0.10;;;;;;;;;;4999097;28;20033;-89
2024/01/27 08:17:30;;;;;;;0.10;0.10;;;;;;;;;;4982090;28;20038;-86
2024/01/27 08:19:56;;;;;;;0.10;0.10;;;;;;;;;;4997860;28;20042;-86
2024/01/27 08:22:22;;;;;;;0.10;0.10;;;;;;;;;;5014351;28;20441;-85
2024/01/27 08:24:48;;;;;;;0.10;0.10;;;;;;;;;;5014548;28;20044;-86
2024/01/27 08:27:15;;;;;;;0.10;0.10;;;;;;;;;;4981953;28;20512;-85
2024/01/27 08:29:41;;;;;;;0.10;0.10;;;;;;;;;;5014263;28;20441;-84
2024/01/27 08:32:07;;;;;;;0.20;0.20;;;;;;;;;;4997947;28;20041;-86
2024/01/27 08:34:33;;;;;;;0.10;0.10;;;;;;;;;;4997764;28;20045;-86
2024/01/27 08:37:00;;;;;;;0.20;0.20;;;;;;;;;;4997766;28;20038;-86
2024/01/27 08:39:26;;;;;;;0.10;0.10;;;;;;;;;;4981804;28;20038;-86
2024/01/27 08:41:52;;;;;;;0.10;0.10;;;;;;;;;;5013840;28;20389;-86
2024/01/27 08:44:20;;;;;;;0.10;0.10;;;;;;;;;;4997723;28;20060;-86
2024/01/27 08:46:46;;;;;;;0.10;0.10;;;;;;;;;;4981555;28;20054;-86
2024/01/27 08:49:12;;;;;;;0.10;0.10;;;;;;;;;;4997478;28;20054;-86
2024/01/27 08:51:38;;;;;;;0.20;0.20;;;;;;;;;;4997590;28;20057;-87
2024/01/27 08:54:04;;;;;;;0.10;0.10;;;;;;;;;;4981438;28;20041;-86
2024/01/27 08:56:30;;;;;;;0.10;0.10;;;;;;;;;;5013737;28;20119;-86
2024/01/27 08:58:56;;;;;;;0.10;0.10;;;;;;;;;;4981057;28;20037;-87
2024/01/27 09:01:22;;;;;;;0.10;0.10;;;;;;;;;;4981964;28;20130;-89
2024/01/27 09:03:49;;;;;;;0.10;0.10;;;;;;;;;;4981232;28;20068;-85
2024/01/27 09:06:16;;;;;;;0.17;0.17;;;;;;;;;;4981176;28;20045;-85
2024/01/27 09:08:42;;;;;;;0.10;0.10;;;;;;;;;;4981154;28;20543;-85
2024/01/27 09:11:10;;;;;;;0.10;0.10;;;;;;;;;;4996929;28;20038;-85
2024/01/27 09:13:36;;;;;;;0.10;0.10;;;;;;;;;;4996970;28;20045;-85
2024/01/27 09:16:02;;;;;;;0.10;0.10;;;;;;;;;;4980724;28;20049;-85
2024/01/27 09:18:28;;;;;;;0.10;0.10;;;;;;;;;;4996722;28;20482;-85
2024/01/27 09:20:54;;;;;;;0.90;0.43;;;;;;;;;;4997473;28;20478;-85
2024/01/27 09:23:20;;;;;;;0.10;0.10;;;;;;;;;;4997186;28;20466;-85
2024/01/27 09:25:46;;;;;;;0.20;0.20;;;;;;;;;;4980834;28;20078;-85
2024/01/27 09:28:14;;;;;;;0.10;0.10;;;;;;;;;;4996633;28;20038;-85
2024/01/27 09:30:40;;;;;;;0.10;0.10;;;;;;;;;;4980963;28;20037;-85
2024/01/27 09:33:06;;;;;;;0.10;0.10;;;;;;;;;;5012567;28;20049;-84
2024/01/27 09:35:32;;;;;;;0.10;0.10;;;;;;;;;;4980440;28;20497;-85
2024/01/27 09:37:58;;;;;;;0.10;0.10;;;;;;;;;;4980372;28;20034;-84
2024/01/27 09:40:24;;;;;;;0.10;0.10;;;;;;;;;;5012805;28;20042;-85
2024/01/27 09:42:54;;;;;;;0.10;0.10;;;;;;;;;;5013144;28;20048;-86
2024/01/27 09:45:22;;;;;;;0.10;0.10;;;;;;;;;;4981162;28;20049;-87
2024/01/27 09:47:48;;;;;;;0.10;0.10;;;;;;;;;;4980963;28;20077;-86
2024/01/27 09:50:14;;;;;;;0.10;0.10;;;;;;;;;;4980233;28;20558;-85
2024/01/27 09:52:40;;;;;;;0.10;0.10;;;;;;;;;;5011964;28;20038;-85
2024/01/27 09:55:07;;;;;;;0.10;0.10;;;;;;;;;;4980402;28;20038;-89
2024/01/27 09:57:34;;;;;;;0.10;0.10;;;;;;;;;;4997112;28;20042;-89
2024/01/27 10:00:00;;;;;;;0.10;0.10;;;;;;;;;;4996340;28;20038;-87
2024/01/27 10:02:26;;;;;;;0.10;0.10;;;;;;;;;;5013270;28;20045;-87
2024/01/27 10:04:54;;;;;;;0.20;0.20;;;;;;;;;;4980434;28;20048;-86
2024/01/27 10:07:20;;;;;;;0.10;0.10;;;;;;;;;;4980526;28;20038;-85
2024/01/27 10:09:49;;;;;;;0.10;0.10;;;;;;;;;;4979711;28;20041;-84
2024/01/27 10:12:16;;;;;;;0.10;0.10;;;;;;;;;;4979791;28;20049;-85
2024/01/27 10:14:42;;;;;;;0.10;0.10;;;;;;;;;;4979205;28;20041;-84
2024/01/27 10:17:11;;;;;;;0.20;0.20;;;;;;;;;;4962479;28;20042;-85
2024/01/27 10:19:38;;;;;;;0.10;0.10;;;;;;;;;;4977543;28;20038;-84
2024/01/27 10:22:04;;;;;;;0.10;0.10;;;;;;;;;;4976365;28;20077;-85
2024/01/27 10:24:35;;;;;;;0.10;0.10;;;;;;;;;;4976567;28;20375;-86
2024/01/27 10:27:04;;;;;;;0.10;0.10;;;;;;;;;;4960210;28;20048;-85
2024/01/27 10:29:31;;;;;;;0.10;0.10;;;;;;;;;;4960116;28;20073;-85
2024/01/27 10:32:07;;;;;;;0.10;0.10;;;;;;;;;;4975929;28;20038;-85
2024/01/27 10:34:33;;;;;;;0.20;0.20;;;;;;;;;;4975950;28;20536;-86
2024/01/27 10:36:59;;;;;;;0.30;0.30;;;;;;;;;;4959848;28;20473;-84
2024/01/27 10:39:25;;;;;;;0.10;0.10;;;;;;;;;;4975968;28;20085;-86
2024/01/27 10:41:51;;;;;;;0.10;0.10;;;;;;;;;;4959735;28;20038;-85
2024/01/27 10:44:19;;;;;;;0.10;0.10;;;;;;;;;;4966825;28;20096;-86
2024/01/27 10:46:46;;;;;;;0.10;0.10;;;;;;;;;;4975862;28;20121;-86
2024/01/27 10:49:13;;;;;;;0.10;0.10;;;;;;;;;;4959514;28;20109;-85
2024/01/27 10:51:39;;;;;;;6.65;0.30;;;;;;;;;;4975109;28;20042;-85
2024/01/27 10:54:07;;;;;;;0.10;0.10;;;;;;;;;;4959975;28;20450;-85
2024/01/27 10:56:33;;;;;;;0.10;0.10;;;;;;;;;;4959718;28;20131;-87
2024/01/27 10:59:00;;;;;;;0.20;0.20;;;;;;;;;;4967244;28;20042;-84
2024/01/27 11:01:39;;;;;;;0.20;0.20;;;;;;;;;;5107643;27;20491;-85
2024/01/27 11:04:07;;;;;;;0.10;0.10;;;;;;;;;;5088561;28;20076;-86
2024/01/27 11:06:34;;;;;;;0.10;0.10;;;;;;;;;;5106334;28;20046;-86
2024/01/27 11:09:01;;;;;;;0.10;0.10;;;;;;;;;;5058330;28;20048;-87
2024/01/27 11:11:27;;;;;;;0.20;0.20;;;;;;;;;;5108939;28;20089;-86
2024/01/27 11:13:53;;;;;;;0.10;0.10;;;;;;;;;;5074756;28;20089;-87
2024/01/27 11:16:19;;;;;;;0.10;0.10;;;;;;;;;;5108270;28;20160;-86
2024/01/27 11:18:45;;;;;;;0.20;0.20;;;;;;;;;;5057996;28;20036;-86
2024/01/27 11:21:15;;;;;;;0.10;0.10;;;;;;;;;;5091129;28;20086;-86
2024/01/27 11:23:41;;;;;;;0.45;0.20;;;;;;;;;;5074831;28;20036;-88
2024/01/27 11:26:08;;;;;;;0.10;0.10;;;;;;;;;;5074612;28;20071;-88
2024/01/27 11:28:35;;;;;;;0.20;0.20;;;;;;;;;;5091828;28;20089;-88
2024/01/27 11:31:07;;;;;;;0.20;0.20;;;;;;;;;;5059639;28;20039;-86
2024/01/27 11:33:33;;;;;;;0.10;0.10;;;;;;;;;;5091203;28;20044;-86
2024/01/27 11:36:03;;;;;;;0.10;0.10;;;;;;;;;;5058123;28;20040;-88
2024/01/27 11:38:29;;;;;;;0.10;0.10;;;;;;;;;;5091354;28;20043;-85
2024/01/27 11:40:55;;;;;;;0.10;0.10;;;;;;;;;;5090950;28;20459;-86
2024/01/27 11:43:22;;;;;;;0.10;0.10;;;;;;;;;;5074600;28;20386;-85
2024/01/27 11:46:01;;;;;;;0.10;0.10;;;;;;;;;;5057681;28;20122;-85
2024/01/27 11:48:29;;;;;;;0.10;0.10;;;;;;;;;;5092211;28;20035;-85
2024/01/27 11:51:03;;;;;;;0.10;0.10;;;;;;;;;;5058147;28;20075;-85
2024/01/27 11:53:29;;;;;;;0.15;0.15;;;;;;;;;;5074237;28;20047;-85
2024/01/27 11:56:00;;;;;;;0.10;0.10;;;;;;;;;;5091272;28;20032;-85
2024/01/27 11:58:26;;;;;;;0.10;0.10;;;;;;;;;;5091193;28;20442;-85
2024/01/27 12:00:52;;;;;;;0.10;0.10;;;;;;;;;;5056854;28;20052;-86
2024/01/27 12:03:18;;;;;;;0.10;0.10;;;;;;;;;;5073783;28;20093;-85
2024/01/27 12:05:44;;;;;;;0.55;0.55;;;;;;;;;;5090630;28;20036;-86
2024/01/27 12:08:10;;;;;;;0.15;0.15;;;;;;;;;;5090902;28;20101;-85
2024/01/27 12:10:36;;;;;;;0.10;0.10;;;;;;;;;;5090438;28;20040;-85
2024/01/27 12:13:03;;;;;;;0.20;0.20;;;;;;;;;;5077208;28;20094;-85
2024/01/27 12:15:29;;;;;;;0.10;0.10;;;;;;;;;;5060438;28;20126;-86
2024/01/27 12:17:55;;;;;;;0.20;0.20;;;;;;;;;;5077022;28;20040;-85
2024/01/27 12:20:22;;;;;;;0.20;0.20;;;;;;;;;;5060160;28;20123;-86
2024/01/27 12:22:50;;;;;;;0.10;0.10;;;;;;;;;;5043644;28;20040;-85
2024/01/27 12:25:17;;;;;;;0.10;0.10;;;;;;;;;;5044118;28;20391;-84
2024/01/27 12:27:43;;;;;;;0.10;0.10;;;;;;;;;;5043584;28;20036;-85
2024/01/27 12:30:10;;;;;;;0.10;0.10;;;;;;;;;;5076692;28;20127;-85
2024/01/27 12:32:36;;;;;;;0.75;0.30;;;;;;;;;;5076849;28;20054;-85
2024/01/27 12:35:08;;;;;;;0.10;0.10;;;;;;;;;;5060394;28;20556;-85
2024/01/27 12:37:34;;;;;;;0.10;0.10;;;;;;;;;;5043525;28;20040;-85
2024/01/27 12:40:01;;;;;;;0.10;0.10;;;;;;;;;;5043580;28;20032;-85
2024/01/27 12:42:27;;;;;;;0.13;0.13;;;;;;;;;;5043207;28;20039;-85
2024/01/27 12:44:53;;;;;;;0.10;0.10;;;;;;;;;;5043618;28;20032;-85
2024/01/27 12:47:19;;;;;;;0.50;0.50;;;;;;;;;;5076564;28;20522;-84
2024/01/27 12:49:45;;;;;;;0.20;0.20;;;;;;;;;;5044288;28;20394;-85
2024/01/27 12:52:12;;;;;;;0.10;0.10;;;;;;;;;;5060114;28;20040;-85
2024/01/27 12:54:38;;;;;;;0.25;0.25;;;;;;;;;;5093294;28;20112;-86
2024/01/27 12:57:07;;;;;;;0.10;0.10;;;;;;;;;;5059870;28;20485;-86
2024/01/27 12:59:33;;;;;;;0.10;0.10;;;;;;;;;;5043594;28;20044;-86
2024/01/27 13:01:59;;;;;;;0.43;0.43;;;;;;;;;;5059726;28;20052;-85
2024/01/27 13:04:26;;;;;;;0.10;0.10;;;;;;;;;;5076227;28;20044;-84
2024/01/27 13:06:54;;;;;;;0.10;0.10;;;;;;;;;;5076562;28;20127;-85
2024/01/27 13:09:20;;;;;;;0.20;0.20;;;;;;;;;;5042988;28;20039;-85
2024/01/27 13:11:46;;;;;;;0.50;0.25;;;;;;;;;;5059075;28;20059;-86
2024/01/27 13:14:12;;;;;;;0.10;0.10;;;;;;;;;;5042680;28;20071;-85
2024/01/27 13:16:38;;;;;;;0.10;0.10;;;;;;;;;;5042798;28;20043;-85
2024/01/27 13:19:05;;;;;;;0.10;0.10;;;;;;;;;;5076293;28;20393;-84
2024/01/27 13:21:31;;;;;;;0.25;0.25;;;;;;;;;;5042577;28;20059;-85
2024/01/27 13:23:57;;;;;;;0.20;0.20;;;;;;;;;;5058146;28;20093;-85
2024/01/27 13:26:23;;;;;;;0.10;0.10;;;;;;;;;;5042327;28;20032;-84
2024/01/27 13:28:49;;;;;;;0.10;0.10;;;;;;;;;;5092368;28;20127;-86
2024/01/27 13:31:16;;;;;;;0.13;0.13;;;;;;;;;;5059056;28;20079;-85
2024/01/27 13:33:42;;;;;;;0.10;0.10;;;;;;;;;;5042400;28;20127;-86
2024/01/27 13:36:08;;;;;;;0.10;0.10;;;;;;;;;;5058532;28;20127;-85
2024/01/27 13:38:35;;;;;;;0.10;0.10;;;;;;;;;;5075386;28;20073;-85
2024/01/27 13:41:01;;;;;;;0.20;0.20;;;;;;;;;;5091772;28;20131;-86
2024/01/27 13:43:27;;;;;;;0.10;0.10;;;;;;;;;;5041836;28;20036;-86
2024/01/27 13:45:54;;;;;;;0.25;0.13;;;;;;;;;;5041926;28;20043;-84
2024/01/27 13:48:21;;;;;;;0.20;0.20;;;;;;;;;;5058700;28;20093;-84
2024/01/27 13:50:47;;;;;;;0.20;0.20;;;;;;;;;;5058521;28;20047;-85
2024/01/27 13:53:14;;;;;;;0.20;0.20;;;;;;;;;;5075250;28;20081;-84
2024/01/27 13:55:42;;;;;;;0.10;0.10;;;;;;;;;;5058142;28;20040;-85
2024/01/27 13:58:08;;;;;;;0.10;0.10;;;;;;;;;;5041868;28;20051;-85
2024/01/27 14:00:35;;;;;;;0.10;0.10;;;;;;;;;;5074948;28;20118;-84
2024/01/27 14:03:01;;;;;;;0.10;0.10;;;;;;;;;;5041615;28;20042;-84
2024/01/27 14:05:27;;;;;;;0.10;0.10;;;;;;;;;;5058307;28;20044;-85
2024/01/27 14:07:53;;;;;;;0.10;0.10;;;;;;;;;;5074768;28;20161;-84
2024/01/27 14:10:19;;;;;;;0.13;0.13;;;;;;;;;;5058260;28;20051;-85
2024/01/27 14:12:45;;;;;;;0.10;0.10;;;;;;;;;;5091623;28;20040;-83
2024/01/27 14:15:12;;;;;;;0.10;0.10;;;;;;;;;;5074749;28;20040;-84
2024/01/27 14:17:38;;;;;;;0.10;0.10;;;;;;;;;;5058269;28;20127;-84
2024/01/27 14:20:04;;;;;;;0.17;0.17;;;;;;;;;;5041393;28;20047;-84
2024/01/27 14:22:30;;;;;;;0.10;0.10;;;;;;;;;;5041741;28;20058;-85
2024/01/27 14:24:57;;;;;;;0.20;0.20;;;;;;;;;;5074537;28;20513;-84
2024/01/27 14:27:25;;;;;;;0.20;0.20;;;;;;;;;;5091401;28;20455;-84
2024/01/27 14:29:55;;;;;;;0.10;0.10;;;;;;;;;;5041824;28;20040;-84
2024/01/27 14:32:21;;;;;;;0.10;0.10;;;;;;;;;;5074564;28;20118;-84
2024/01/27 14:34:47;;;;;;;0.10;0.10;;;;;;;;;;5041015;28;20131;-84
2024/01/27 14:37:16;;;;;;;0.10;0.10;;;;;;;;;;5057751;28;20075;-84
2024/01/27 14:39:46;;;;;;;0.10;0.10;;;;;;;;;;5041172;28;20495;-84